Time;durP1;ratioP1;P1;durP2;ratioP2;P2;SDS_P1;SDS_P2;PMS_P1;PMS_P2;Temp;Humidity;BMP_temperature;BMP_pressure;BME280_temperature;BME280_humidity;BME280_pressure;Samples;Min_cycle;Max_cycle;Signal;HPM_P1;HPM_P2
2022/03/12 00:00:30;;;;;;;;;5.25;3.75;;;;;12.65;60.97;100633.81;2121066;27;47633;-64
2022/03/12 00:01:31;;;;;;;;;4.75;4.75;;;;;12.64;60.84;100632.09;2120707;27;47017;-65
2022/03/12 00:02:32;;;;;;;;;4.25;4.25;;;;;12.65;60.75;100637.38;2121019;27;47676;-65
2022/03/12 00:03:33;;;;;;;;;5.00;4.00;;;;;12.64;60.90;100626.75;2122602;27;47800;-64
2022/03/12 00:04:33;;;;;;;;;4.67;3.00;;;;;12.64;60.66;100634.75;2121590;27;47752;-63
2022/03/12 00:05:35;;;;;;;;;5.00;4.00;;;;;12.63;60.85;100636.53;2129807;27;47833;-65
2022/03/12 00:06:35;;;;;;;;;3.75;3.25;;;;;12.64;60.99;100640.06;2124411;27;48176;-65
2022/03/12 00:07:41;;;;;;;;;6.00;4.00;;;;;12.66;60.69;100640.91;2121845;27;47303;-64
2022/03/12 00:08:44;;;;;;;;;4.40;4.40;;;;;12.66;60.80;100649.75;2121572;27;48252;-64
2022/03/12 00:09:44;;;;;;;;;3.00;3.00;;;;;12.67;60.63;100655.94;2121956;27;45778;-66
2022/03/12 00:10:50;;;;;;;;;3.00;3.00;;;;;12.66;60.77;100644.44;2121702;27;47670;-64
2022/03/12 00:11:55;;;;;;;;;6.25;4.00;;;;;12.67;60.80;100659.47;2121582;27;47596;-64
2022/03/12 00:12:56;;;;;;;;;5.50;4.75;;;;;12.68;60.66;100647.03;2121576;27;47489;-65
2022/03/12 00:14:00;;;;;;;;;4.67;4.00;;;;;12.68;60.69;100652.34;2124647;27;47510;-65
2022/03/12 00:15:09;;;;;;;;;3.50;3.50;;;;;12.67;60.69;100655.94;2121142;27;48238;-65
2022/03/12 00:16:15;;;;;;;;;5.25;4.00;;;;;12.66;60.77;100659.53;2128213;27;47729;-66
2022/03/12 00:17:18;;;;;;;;;3.75;3.75;;;;;12.67;60.78;100653.28;2123802;27;47308;-64
2022/03/12 00:18:20;;;;;;;;;4.50;4.50;;;;;12.66;60.71;100663.06;2128408;27;47695;-64
2022/03/12 00:19:21;;;;;;;;;5.25;5.25;;;;;12.68;60.66;100663.00;2130272;27;47741;-65
2022/03/12 00:20:22;;;;;;;;;5.00;3.75;;;;;12.70;60.79;100660.28;2121537;27;47552;-65
2022/03/12 00:21:24;;;;;;;;;3.25;3.25;;;;;12.69;60.62;100659.44;2122941;27;48061;-65
2022/03/12 00:22:27;;;;;;;;;4.00;4.00;;;;;12.70;60.74;100661.16;2129493;27;47752;-64
2022/03/12 00:23:28;;;;;;;;;4.50;4.00;;;;;12.71;60.57;100659.41;2128705;27;47679;-64
2022/03/12 00:24:29;;;;;;;;;5.50;5.00;;;;;12.68;60.67;100655.03;2125458;27;47318;-64
2022/03/12 00:25:31;;;;;;;;;5.25;4.75;;;;;12.67;60.74;100658.59;2121609;27;48232;-64
2022/03/12 00:26:33;;;;;;;;;3.75;3.75;;;;;12.66;60.70;100663.06;2124704;27;47653;-64
2022/03/12 00:27:34;;;;;;;;;3.25;3.25;;;;;12.66;60.46;100664.84;2129017;27;47806;-63
2022/03/12 00:28:34;;;;;;;;;3.00;3.00;;;;;12.65;60.41;100663.97;2121750;27;47596;-65
2022/03/12 00:29:35;;;;;;;;;4.00;4.00;;;;;12.65;60.53;100656.00;2125856;27;48570;-64
2022/03/12 00:30:35;;;;;;;;;3.00;3.00;;;;;12.64;60.55;100656.03;2130152;27;47944;-62
2022/03/12 00:31:36;;;;;;;;;4.00;4.00;;;;;12.64;60.64;100669.34;2122122;27;48325;-67
2022/03/12 00:32:37;;;;;;;;;4.00;4.00;;;;;12.62;60.46;100658.75;2121667;27;47972;-66
2022/03/12 00:33:37;;;;;;;;;4.75;3.75;;;;;12.61;60.39;100674.78;2121625;27;47770;-63
2022/03/12 00:34:38;;;;;;;;;5.33;4.00;;;;;12.59;60.33;100674.84;2121245;27;47466;-64
2022/03/12 00:35:38;;;;;;;;;5.33;4.67;;;;;12.58;60.55;100670.44;2121226;27;47703;-64
2022/03/12 00:36:39;;;;;;;;;7.00;4.67;;;;;12.58;60.65;100683.75;2121883;27;47525;-64
2022/03/12 00:37:40;;;;;;;;;5.00;5.00;;;;;12.58;60.96;100672.22;2121202;27;47686;-62
2022/03/12 00:38:40;;;;;;;;;8.00;4.33;;;;;12.57;60.54;100673.97;2121632;27;47980;-66
2022/03/12 00:39:44;;;;;;;;;4.67;4.67;;;;;12.56;60.65;100674.91;2121144;27;47819;-65
2022/03/12 00:40:45;;;;;;;;;5.75;4.75;;;;;12.58;60.54;100674.88;2115497;27;47335;-64
2022/03/12 00:41:45;;;;;;;;;3.00;3.00;;;;;12.58;60.56;100685.53;2120271;27;47835;-65
2022/03/12 00:42:46;;;;;;;;;4.67;4.00;;;;;12.58;60.68;100677.56;2125396;27;47716;-63
2022/03/12 00:43:46;;;;;;;;;3.33;3.33;;;;;12.57;60.64;100671.31;2125432;27;47612;-63
2022/03/12 00:44:47;;;;;;;;;3.67;3.67;;;;;12.56;60.58;100672.25;2124395;27;47381;-64
2022/03/12 00:45:49;;;;;;;;;5.00;5.00;;;;;12.58;60.69;100681.09;2129903;27;47859;-65
2022/03/12 00:46:50;;;;;;;;;5.00;5.00;;;;;12.58;60.61;100683.75;2122026;27;48020;-65
2022/03/12 00:47:50;;;;;;;;;4.00;4.00;;;;;12.61;60.58;100678.31;2121243;27;47204;-65
2022/03/12 00:48:50;;;;;;;;;5.67;5.67;;;;;12.63;60.71;100679.13;2121377;27;47448;-65
2022/03/12 00:49:51;;;;;;;;;2.00;2.00;;;;;12.63;60.45;100687.13;2121532;27;47821;-64
2022/03/12 00:50:52;;;;;;;;;7.00;6.00;;;;;12.64;60.64;100682.66;2113264;27;47682;-63
2022/03/12 00:51:52;;;;;;;;;4.00;4.00;;;;;12.66;60.67;100688.81;2120900;27;47037;-65
2022/03/12 00:52:53;;;;;;;;;4.33;3.00;;;;;12.66;60.44;100686.16;2125769;27;45643;-64
2022/03/12 00:53:53;;;;;;;;;5.00;5.00;;;;;12.66;60.46;100687.03;2121315;27;47898;-67
2022/03/12 00:54:54;;;;;;;;;4.33;4.33;;;;;12.67;60.49;100701.22;2121049;27;47809;-64
2022/03/12 00:55:54;;;;;;;;;6.00;5.67;;;;;12.68;60.51;100702.94;2124059;27;47276;-66
2022/03/12 00:56:54;;;;;;;;;4.67;4.67;;;;;12.69;60.38;100694.03;2130006;27;48110;-63
2022/03/12 00:57:55;;;;;;;;;3.00;3.00;;;;;12.70;60.61;100694.91;2123260;27;47366;-63
2022/03/12 00:58:59;;;;;;;;;4.33;4.33;;;;;12.70;60.48;100698.44;2123718;27;47678;-65
2022/03/12 00:59:59;;;;;;;;;4.00;4.00;;;;;12.69;60.42;100712.69;2129868;27;47539;-64
2022/03/12 01:01:01;;;;;;;;;7.00;5.00;;;;;12.70;60.49;100710.88;2124292;27;47442;-63
2022/03/12 01:02:02;;;;;;;;;5.00;5.00;;;;;12.70;60.58;100710.88;2112134;27;47780;-66
2022/03/12 01:03:02;;;;;;;;;3.33;3.33;;;;;12.70;60.49;100702.91;2112245;27;47402;-65
2022/03/12 01:04:03;;;;;;;;;4.00;4.00;;;;;12.70;60.42;100713.56;2121354;27;47324;-64
2022/03/12 01:05:04;;;;;;;;;3.00;3.00;;;;;12.66;60.60;100708.31;2121708;27;47468;-65
2022/03/12 01:06:05;;;;;;;;;3.33;3.33;;;;;12.63;60.54;100712.88;2121030;27;47888;-64
2022/03/12 01:07:06;;;;;;;;;4.50;4.00;;;;;12.60;60.69;100713.84;2121360;27;48077;-64
2022/03/12 01:08:06;;;;;;;;;5.33;4.67;;;;;12.60;60.66;100718.31;2121293;27;47641;-64
2022/03/12 01:09:07;;;;;;;;;6.67;5.33;;;;;12.58;60.75;100722.81;2121006;27;47836;-64
2022/03/12 01:10:08;;;;;;;;;4.00;4.00;;;;;12.58;60.81;100718.34;2121108;27;47323;-65
2022/03/12 01:11:09;;;;;;;;;5.00;5.00;;;;;12.58;60.72;100722.81;2121328;27;47990;-65
2022/03/12 01:12:10;;;;;;;;;2.75;2.75;;;;;12.57;60.67;100719.25;2125260;27;48345;-63
2022/03/12 01:13:11;;;;;;;;;3.75;3.75;;;;;12.57;60.71;100721.91;2130173;27;47725;-65
2022/03/12 01:14:12;;;;;;;;;5.33;3.33;;;;;12.55;60.84;100726.41;2121859;27;47825;-65
2022/03/12 01:15:12;;;;;;;;;4.00;4.00;;;;;12.54;60.77;100722.00;2122874;27;47615;-66
2022/03/12 01:16:14;;;;;;;;;4.67;4.67;;;;;12.53;61.00;100717.59;2129818;27;45881;-65
2022/03/12 01:17:15;;;;;;;;;3.00;3.00;;;;;12.55;60.85;100730.84;2129821;27;48185;-64
2022/03/12 01:18:19;;;;;;;;;4.00;4.00;;;;;12.57;60.77;100737.00;2129794;27;47911;-64
2022/03/12 01:19:19;;;;;;;;;3.75;3.75;;;;;12.57;60.57;100724.56;2129997;27;47791;-64
2022/03/12 01:20:22;;;;;;;;;3.33;3.00;;;;;12.57;60.79;100726.34;2129438;27;47657;-65
2022/03/12 01:21:23;;;;;;;;;5.75;5.75;;;;;12.58;60.85;100728.13;2122835;27;47567;-65
2022/03/12 01:22:26;;;;;;;;;5.00;3.75;;;;;12.59;60.83;100729.88;2121212;27;47415;-65
2022/03/12 01:23:26;;;;;;;;;3.50;3.50;;;;;12.59;60.61;100732.53;2121265;27;47875;-64
2022/03/12 01:24:28;;;;;;;;;5.00;5.00;;;;;12.59;60.86;100733.41;2126788;27;47193;-62
2022/03/12 01:25:29;;;;;;;;;3.25;3.25;;;;;12.59;60.66;100741.41;2128560;27;47800;-64
2022/03/12 01:26:29;;;;;;;;;3.75;3.50;;;;;12.59;60.72;100737.84;2129480;27;47573;-66
2022/03/12 01:27:30;;;;;;;;;4.00;3.00;;;;;12.59;60.58;100729.88;2129770;27;48100;-62
2022/03/12 01:28:30;;;;;;;;;2.67;2.67;;;;;12.59;60.80;100744.06;2130023;27;47690;-64
2022/03/12 01:29:31;;;;;;;;;3.33;3.33;;;;;12.60;60.60;100734.28;2129456;27;47462;-64
2022/03/12 01:30:31;;;;;;;;;4.00;4.00;;;;;12.59;60.80;100736.06;2116237;27;47528;-64
2022/03/12 01:31:32;;;;;;;;;4.00;3.00;;;;;12.58;60.62;100734.31;2118522;27;47703;-65
2022/03/12 01:32:33;;;;;;;;;5.00;3.00;;;;;12.58;60.58;100737.00;2127843;27;47741;-65
2022/03/12 01:33:33;;;;;;;;;3.75;3.75;;;;;12.57;60.63;100737.00;2129178;27;48298;-65
2022/03/12 01:34:34;;;;;;;;;3.00;3.00;;;;;12.57;60.65;100743.19;2120970;27;47464;-64
2022/03/12 01:35:35;;;;;;;;;5.00;5.00;;;;;12.56;60.73;100730.81;2124823;27;48336;-65
2022/03/12 01:36:35;;;;;;;;;4.75;4.50;;;;;12.58;60.76;100733.47;2129856;27;47649;-64
2022/03/12 01:37:36;;;;;;;;;2.00;2.00;;;;;12.57;60.68;100729.88;2121971;27;48197;-66
2022/03/12 01:38:48;;;;;;;;;3.00;3.00;;;;;12.59;60.70;100729.88;2121198;27;47320;-66
2022/03/12 01:39:49;;;;;;;;;5.00;3.00;;;;;12.59;60.59;100725.41;2120789;27;47691;-64
2022/03/12 01:40:52;;;;;;;;;5.25;4.50;;;;;12.60;60.58;100729.81;2120983;27;48319;-64
2022/03/12 01:41:53;;;;;;;;;3.25;3.25;;;;;12.59;60.46;100728.09;2120841;27;47261;-64
2022/03/12 01:42:54;;;;;;;;;2.00;2.00;;;;;12.59;60.57;100720.09;2111895;27;47979;-61
2022/03/12 01:43:57;;;;;;;;;4.25;4.25;;;;;12.60;60.63;100720.97;2116271;27;47540;-64
2022/03/12 01:44:58;;;;;;;;;5.25;4.50;;;;;12.60;60.58;100721.84;2124576;27;47421;-64
2022/03/12 01:46:01;;;;;;;;;4.00;4.00;;;;;12.60;60.93;100721.84;2124238;27;47268;-66
2022/03/12 01:47:07;;;;;;;;;3.00;3.00;;;;;12.58;60.42;100729.00;2102933;27;47494;-66
2022/03/12 01:48:08;;;;;;;;;4.00;4.00;;;;;12.59;60.43;100724.53;2113077;27;47692;-63
2022/03/12 01:49:17;;;;;;;;;4.00;3.67;;;;;12.58;60.63;100728.13;2126037;27;47694;-64
2022/03/12 01:50:19;;;;;;;;;6.50;5.75;;;;;12.58;60.69;100728.13;2129353;27;47572;-64
2022/03/12 01:51:20;;;;;;;;;3.00;3.00;;;;;12.56;60.19;100720.16;2129591;27;47802;-64
2022/03/12 01:52:21;;;;;;;;;4.67;3.67;;;;;12.57;60.43;100726.34;2129374;27;47475;-64
2022/03/12 01:53:25;;;;;;;;;3.00;3.00;;;;;12.56;60.17;100730.81;2130026;27;47977;-63
2022/03/12 01:54:28;;;;;;;;;4.00;4.00;;;;;12.55;60.64;100725.53;2129549;27;47119;-65
2022/03/12 01:55:32;;;;;;;;;4.50;4.50;;;;;12.54;60.52;100723.78;2116373;27;47942;-64
2022/03/12 01:56:37;;;;;;;;;5.50;5.50;;;;;12.52;60.68;100731.81;2111935;27;47369;-66
2022/03/12 01:57:37;;;;;;;;;4.50;3.50;;;;;12.53;60.82;100727.38;2129223;27;47779;-64
2022/03/12 01:58:44;;;;;;;;;4.33;4.33;;;;;12.52;60.65;100730.97;2126579;27;47310;-65
2022/03/12 01:59:45;;;;;;;;;4.00;4.00;;;;;12.50;60.55;100733.66;2094803;28;47170;-65
2022/03/12 02:00:48;;;;;;;;;5.67;5.00;;;;;12.51;60.79;100739.88;2101218;28;47790;-64
2022/03/12 02:01:51;;;;;;;;;5.00;5.00;;;;;12.51;60.66;100735.41;2126518;27;47697;-64
2022/03/12 02:02:54;;;;;;;;;6.50;6.00;;;;;12.50;60.62;100736.34;2121236;27;48126;-64
2022/03/12 02:04:05;;;;;;;;;5.50;5.50;;;;;12.49;60.53;100737.25;2127464;27;47944;-64
2022/03/12 02:05:05;;;;;;;;;3.75;3.75;;;;;12.49;60.46;100747.03;2126589;27;47469;-64
2022/03/12 02:06:06;;;;;;;;;4.00;4.00;;;;;12.48;60.61;100746.16;2094156;28;47047;-64
2022/03/12 02:07:07;;;;;;;;;4.00;4.00;;;;;12.47;60.85;100746.19;2099774;27;47316;-65
2022/03/12 02:08:16;;;;;;;;;5.00;5.00;;;;;12.48;60.62;100750.59;2129155;27;47679;-65
2022/03/12 02:09:18;;;;;;;;;5.25;4.50;;;;;12.48;60.64;100753.28;2129697;27;47642;-65
2022/03/12 02:10:20;;;;;;;;;5.00;5.00;;;;;12.47;60.70;100756.84;2121240;27;48319;-64
2022/03/12 02:11:39;;;;;;;;;4.25;4.25;;;;;12.47;60.65;100748.88;2121334;27;47552;-65
2022/03/12 02:12:40;;;;;;;;;4.25;4.25;;;;;12.47;60.70;100752.41;2120821;27;48034;-65
2022/03/12 02:13:40;;;;;;;;;5.33;5.33;;;;;12.46;60.85;100760.44;2127977;27;48209;-65
2022/03/12 02:14:41;;;;;;;;;4.67;4.67;;;;;12.46;60.77;100763.09;2129581;27;47857;-64
2022/03/12 02:15:41;;;;;;;;;5.00;4.00;;;;;12.44;60.57;100767.56;2124162;27;47915;-63
2022/03/12 02:16:49;;;;;;;;;4.67;4.00;;;;;12.42;60.80;100761.41;2120706;27;47410;-65
2022/03/12 02:17:51;;;;;;;;;3.75;3.75;;;;;12.40;60.78;100756.13;2120975;27;47512;-64
2022/03/12 02:18:51;;;;;;;;;4.25;4.25;;;;;12.39;60.84;100759.72;2125564;27;47790;-67
2022/03/12 02:19:52;;;;;;;;;3.00;2.00;;;;;12.37;60.83;100754.44;2120444;27;47608;-64
2022/03/12 02:20:52;;;;;;;;;5.00;5.00;;;;;12.37;60.71;100758.91;2112318;27;47405;-65
2022/03/12 02:21:52;;;;;;;;;5.00;5.00;;;;;12.37;60.66;100764.22;2123193;27;47800;-63
2022/03/12 02:22:54;;;;;;;;;3.33;3.33;;;;;12.36;60.73;100762.47;2129535;27;47386;-63
2022/03/12 02:23:54;;;;;;;;;3.25;3.25;;;;;12.33;60.72;100757.25;2128686;27;48164;-66
2022/03/12 02:24:55;;;;;;;;;5.00;5.00;;;;;12.31;60.72;100761.72;2129209;27;47761;-65
2022/03/12 02:26:02;;;;;;;;;5.00;4.00;;;;;12.28;60.67;100762.69;2129537;27;47760;-64
2022/03/12 02:27:06;;;;;;;;;5.25;5.25;;;;;12.27;60.74;100752.06;2127941;27;47853;-65
2022/03/12 02:28:18;;;;;;;;;4.75;4.75;;;;;12.26;60.69;100760.97;2120757;27;47327;-62
2022/03/12 02:29:20;;;;;;;;;3.75;3.50;;;;;12.25;60.78;100759.22;2121028;27;47835;-65
2022/03/12 02:30:23;;;;;;;;;4.00;4.00;;;;;12.23;60.71;100750.44;2120576;27;48101;-63
2022/03/12 02:31:25;;;;;;;;;5.50;4.50;;;;;12.20;60.87;100761.16;2125194;27;47246;-65
2022/03/12 02:32:26;;;;;;;;;4.25;4.25;;;;;12.19;60.89;100759.38;2120527;27;47792;-65
2022/03/12 02:33:28;;;;;;;;;5.00;5.00;;;;;12.17;61.09;100755.91;2120824;27;47451;-65
2022/03/12 02:34:38;;;;;;;;;3.00;3.00;;;;;12.15;60.88;100752.41;2120692;27;48673;-63
2022/03/12 02:35:40;;;;;;;;;4.00;3.00;;;;;12.13;61.07;100749.81;2120559;27;47612;-64
2022/03/12 02:36:44;;;;;;;;;4.25;4.00;;;;;12.12;61.04;100756.03;2125729;27;47390;-63
2022/03/12 02:37:49;;;;;;;;;4.00;4.00;;;;;12.12;60.96;100750.72;2129346;27;47931;-64
2022/03/12 02:38:49;;;;;;;;;4.00;4.00;;;;;12.13;61.11;100762.22;2129404;27;47751;-65
2022/03/12 02:39:50;;;;;;;;;3.67;3.33;;;;;12.14;61.12;100759.53;2126022;27;47757;-64
2022/03/12 02:40:51;;;;;;;;;4.33;3.33;;;;;12.15;60.96;100753.28;2120623;27;47976;-63
2022/03/12 02:41:52;;;;;;;;;4.00;3.50;;;;;12.17;61.01;100755.91;2124165;27;48452;-65
2022/03/12 02:42:55;;;;;;;;;3.00;3.00;;;;;12.18;61.52;100754.97;2121415;27;47929;-65
2022/03/12 02:43:56;;;;;;;;;3.25;3.25;;;;;12.18;61.08;100755.84;2123192;27;47659;-64
2022/03/12 02:45:00;;;;;;;;;4.00;4.00;;;;;12.19;61.03;100754.94;2121627;27;47186;-65
2022/03/12 02:46:02;;;;;;;;;6.25;5.00;;;;;12.19;60.84;100751.41;2129370;27;47409;-65
2022/03/12 02:47:14;;;;;;;;;4.50;4.50;;;;;12.19;61.00;100756.72;2124426;27;47567;-65
2022/03/12 02:48:15;;;;;;;;;4.00;3.75;;;;;12.17;60.99;100750.59;2103327;27;47829;-65
2022/03/12 02:49:16;;;;;;;;;3.67;3.67;;;;;12.17;61.00;100751.44;2110945;27;47980;-65
2022/03/12 02:50:17;;;;;;;;;5.00;5.00;;;;;12.17;60.87;100747.91;2124534;27;48172;-65
2022/03/12 02:51:21;;;;;;;;;3.25;3.25;;;;;12.17;60.92;100750.59;2120598;27;47758;-65
2022/03/12 02:52:24;;;;;;;;;6.25;6.25;;;;;12.17;61.50;100754.13;2120515;27;48397;-65
2022/03/12 02:53:25;;;;;;;;;4.25;4.25;;;;;12.17;60.86;100761.22;2120981;27;47469;-66
2022/03/12 02:54:25;;;;;;;;;4.00;4.00;;;;;12.17;60.89;100753.25;2120369;27;48040;-65
2022/03/12 02:55:26;;;;;;;;;4.33;4.00;;;;;12.18;60.88;100757.66;2120678;27;47965;-64
2022/03/12 02:56:29;;;;;;;;;3.67;3.00;;;;;12.19;60.93;100756.72;2120327;27;47319;-65
2022/03/12 02:57:30;;;;;;;;;5.00;3.25;;;;;12.18;60.94;100749.66;2124512;27;46992;-64
2022/03/12 02:58:30;;;;;;;;;6.00;4.00;;;;;12.18;60.84;100761.19;2128995;27;47710;-63
2022/03/12 02:59:32;;;;;;;;;3.33;3.33;;;;;12.17;61.00;100751.44;2129042;27;47652;-64
2022/03/12 03:00:36;;;;;;;;;5.75;4.00;;;;;12.17;61.01;100751.44;2129044;27;47725;-63
2022/03/12 03:01:37;;;;;;;;;7.50;5.00;;;;;12.16;61.05;100760.34;2128858;27;47165;-64
2022/03/12 03:02:41;;;;;;;;;6.00;5.00;;;;;12.15;61.09;100758.59;2128801;27;47877;-63
2022/03/12 03:03:43;;;;;;;;;6.00;5.25;;;;;12.16;60.92;100764.81;2129295;27;47769;-65
2022/03/12 03:04:45;;;;;;;;;4.00;4.00;;;;;12.16;60.89;100767.47;2106487;27;47854;-63
2022/03/12 03:05:47;;;;;;;;;5.00;4.75;;;;;12.16;61.06;100762.13;2102155;27;47751;-65
2022/03/12 03:06:48;;;;;;;;;6.00;6.00;;;;;12.16;61.04;100765.66;2128633;27;47574;-65
2022/03/12 03:07:54;;;;;;;;;5.00;4.67;;;;;12.17;60.96;100766.53;2125849;27;47657;-64
2022/03/12 03:08:57;;;;;;;;;5.00;5.00;;;;;12.17;60.98;100763.88;2120304;27;47649;-64
2022/03/12 03:09:58;;;;;;;;;4.75;4.75;;;;;12.17;60.90;100767.41;2120644;27;47975;-63
2022/03/12 03:10:59;;;;;;;;;4.33;4.33;;;;;12.19;61.03;100759.38;2120191;27;47791;-66
2022/03/12 03:12:03;;;;;;;;;4.75;4.00;;;;;12.20;60.89;100769.16;2120544;27;47580;-63
2022/03/12 03:13:35;;;;;;;;;6.50;5.75;;;;;12.20;60.87;100772.69;2120525;27;47836;-64
2022/03/12 03:14:39;;;;;;;;;4.50;4.50;;;;;12.18;60.81;100774.47;2124084;27;47713;-63
2022/03/12 03:15:40;;;;;;;;;6.50;5.75;;;;;12.19;60.88;100768.25;2120214;27;48033;-64
2022/03/12 03:16:41;;;;;;;;;6.50;5.25;;;;;12.18;61.07;100773.59;2120547;27;47756;-64
2022/03/12 03:17:41;;;;;;;;;5.67;5.00;;;;;12.19;60.85;100772.69;2120756;27;47649;-65
2022/03/12 03:18:50;;;;;;;;;4.67;4.67;;;;;12.19;61.01;100764.72;2129644;27;47772;-63
2022/03/12 03:19:52;;;;;;;;;4.75;4.50;;;;;12.19;61.00;100772.69;2130757;27;48038;-63
2022/03/12 03:20:54;;;;;;;;;4.50;4.50;;;;;12.19;60.89;100765.59;2130204;27;47707;-65
2022/03/12 03:21:58;;;;;;;;;4.50;4.50;;;;;12.20;60.83;100772.69;2122858;27;47960;-65
2022/03/12 03:22:59;;;;;;;;;1.00;1.00;;;;;12.20;61.04;100766.50;2121806;27;47614;-64
2022/03/12 03:24:00;;;;;;;;;5.00;4.00;;;;;12.20;60.89;100771.81;2121800;27;47691;-64
2022/03/12 03:25:00;;;;;;;;;3.50;3.50;;;;;12.19;60.74;100773.56;2122211;27;48003;-64
2022/03/12 03:26:03;;;;;;;;;4.33;3.67;;;;;12.18;61.00;100777.13;2117136;27;47433;-64
2022/03/12 03:27:04;;;;;;;;;3.50;3.50;;;;;12.18;60.88;100778.94;2112877;27;47407;-65
2022/03/12 03:28:05;;;;;;;;;4.67;4.00;;;;;12.18;60.92;100781.59;2121705;27;47834;-64
2022/03/12 03:29:07;;;;;;;;;6.00;4.50;;;;;12.17;60.88;100774.53;2095204;28;47565;-65
2022/03/12 03:30:09;;;;;;;;;5.75;5.00;;;;;12.15;60.94;100776.38;2096117;27;47141;-64
2022/03/12 03:31:09;;;;;;;;;5.00;5.00;;;;;12.16;60.91;100780.75;2122897;27;47760;-65
2022/03/12 03:32:10;;;;;;;;;4.33;4.33;;;;;12.15;60.90;100776.38;2121851;27;47939;-65
2022/03/12 03:33:13;;;;;;;;;4.67;4.67;;;;;12.15;60.88;100771.03;2121823;27;47598;-67
2022/03/12 03:34:14;;;;;;;;;5.00;5.00;;;;;12.13;60.78;100779.06;2122007;27;47418;-64
2022/03/12 03:35:14;;;;;;;;;3.50;3.00;;;;;12.13;61.05;100775.53;2122209;27;47879;-64
2022/03/12 03:36:15;;;;;;;;;4.67;4.67;;;;;12.13;60.72;100770.22;2122030;27;47584;-61
2022/03/12 03:37:15;;;;;;;;;6.00;6.00;;;;;12.14;60.81;100774.63;2121947;27;47610;-65
2022/03/12 03:38:16;;;;;;;;;5.00;4.00;;;;;12.14;60.99;100777.28;2121865;27;47890;-63
2022/03/12 03:39:17;;;;;;;;;4.50;4.50;;;;;12.14;60.81;100772.81;2121820;27;47634;-63
2022/03/12 03:40:17;;;;;;;;;4.33;4.00;;;;;12.15;60.91;100773.69;2121847;27;46765;-63
2022/03/12 03:41:18;;;;;;;;;5.33;4.00;;;;;12.16;60.82;100772.78;2121706;27;47664;-63
2022/03/12 03:42:21;;;;;;;;;5.00;5.00;;;;;12.16;60.95;100771.00;2121565;27;47331;-64
2022/03/12 03:43:23;;;;;;;;;4.25;3.50;;;;;12.17;60.72;100775.41;2121888;27;48059;-63
2022/03/12 03:44:29;;;;;;;;;6.75;6.00;;;;;12.19;60.80;100775.34;2121867;27;48052;-66
2022/03/12 03:45:29;;;;;;;;;4.25;4.25;;;;;12.19;60.88;100775.34;2121959;27;48270;-64
2022/03/12 03:46:30;;;;;;;;;6.00;6.00;;;;;12.18;60.70;100771.81;2121652;27;47552;-64
2022/03/12 03:47:30;;;;;;;;;4.00;4.00;;;;;12.17;60.65;100772.75;2122179;27;48052;-64
2022/03/12 03:48:37;;;;;;;;;4.00;4.00;;;;;12.18;60.69;100784.25;2125692;27;48028;-65
2022/03/12 03:49:38;;;;;;;;;6.00;6.00;;;;;12.19;60.80;100780.69;2130205;27;47664;-65
2022/03/12 03:50:39;;;;;;;;;4.00;4.00;;;;;12.19;60.70;100781.53;2130522;27;47712;-63
2022/03/12 03:51:42;;;;;;;;;5.25;5.25;;;;;12.20;60.76;100793.09;2125943;27;48037;-65
2022/03/12 03:52:42;;;;;;;;;5.75;5.75;;;;;12.20;60.55;100793.97;2127545;27;47750;-64
2022/03/12 03:53:43;;;;;;;;;6.00;5.00;;;;;12.20;60.76;100795.75;2121871;27;47481;-64
2022/03/12 03:54:43;;;;;;;;;5.00;5.00;;;;;12.19;60.69;100786.00;2127912;27;47693;-64
2022/03/12 03:55:44;;;;;;;;;5.00;5.00;;;;;12.17;60.74;100787.81;2130196;27;47295;-63
2022/03/12 03:56:45;;;;;;;;;4.75;4.00;;;;;12.18;60.59;100786.91;2129948;27;47865;-63
2022/03/12 03:57:45;;;;;;;;;3.33;3.33;;;;;12.18;60.76;100789.56;2130200;27;47861;-63
2022/03/12 03:58:46;;;;;;;;;5.00;5.00;;;;;12.18;60.85;100786.91;2130202;27;46446;-64
2022/03/12 03:59:46;;;;;;;;;5.00;5.00;;;;;12.19;60.68;100789.53;2130402;27;47208;-65
2022/03/12 04:00:57;;;;;;;;;5.67;4.67;;;;;12.19;60.70;100786.88;2125251;27;47638;-59
2022/03/12 04:01:58;;;;;;;;;4.00;4.00;;;;;12.18;60.50;100790.44;2121833;27;48135;-64
2022/03/12 04:03:02;;;;;;;;;5.75;5.75;;;;;12.18;60.61;100787.78;2121437;27;48106;-65
2022/03/12 04:04:03;;;;;;;;;5.25;4.00;;;;;12.18;60.49;100785.13;2121575;27;47868;-65
2022/03/12 04:05:04;;;;;;;;;3.67;3.67;;;;;12.18;60.64;100792.22;2122024;27;47547;-66
2022/03/12 04:06:05;;;;;;;;;6.00;4.75;;;;;12.18;60.52;100785.13;2126849;27;46788;-62
2022/03/12 04:07:06;;;;;;;;;4.67;4.00;;;;;12.18;60.42;100789.56;2123491;27;47826;-63
2022/03/12 04:08:08;;;;;;;;;4.00;4.00;;;;;12.17;60.41;100795.81;2127911;27;47479;-65
2022/03/12 04:09:10;;;;;;;;;4.00;4.00;;;;;12.15;60.57;100795.84;2121793;27;47336;-65
2022/03/12 04:10:10;;;;;;;;;4.50;3.50;;;;;12.14;60.31;100791.44;2122256;27;48116;-65
2022/03/12 04:11:23;;;;;;;;;4.00;4.00;;;;;12.13;60.43;100796.81;2130139;27;47605;-64
2022/03/12 04:12:24;;;;;;;;;4.50;4.50;;;;;12.12;60.61;100789.75;2121786;27;47719;-64
2022/03/12 04:13:25;;;;;;;;;7.33;5.00;;;;;12.11;60.43;100791.53;2122150;27;48185;-64
2022/03/12 04:14:26;;;;;;;;;5.00;5.00;;;;;12.12;60.67;100792.41;2121848;27;47527;-63
2022/03/12 04:15:27;;;;;;;;;2.75;2.75;;;;;12.11;60.33;100794.19;2121849;27;47266;-63
2022/03/12 04:16:28;;;;;;;;;5.67;5.67;;;;;12.11;60.32;100788.88;2128050;27;48003;-64
2022/03/12 04:17:28;;;;;;;;;6.00;5.75;;;;;12.11;60.62;100788.00;2128443;27;47803;-63
2022/03/12 04:18:29;;;;;;;;;4.67;4.67;;;;;12.11;60.37;100790.66;2121796;27;47426;-63
2022/03/12 04:19:30;;;;;;;;;6.33;5.33;;;;;12.10;60.41;100795.13;2121372;27;47446;-65
2022/03/12 04:20:31;;;;;;;;;4.00;4.00;;;;;12.10;60.42;100788.94;2121548;27;47428;-64
2022/03/12 04:21:31;;;;;;;;;5.00;4.00;;;;;12.07;60.31;100792.53;2130208;27;47450;-62
2022/03/12 04:22:32;;;;;;;;;5.67;4.67;;;;;12.07;60.58;100793.41;2125685;27;47753;-63
2022/03/12 04:23:34;;;;;;;;;4.00;4.00;;;;;12.07;60.48;100795.22;2112201;27;47747;-65
2022/03/12 04:24:35;;;;;;;;;4.00;4.00;;;;;12.06;60.39;100796.97;2112265;27;47548;-65
2022/03/12 04:25:35;;;;;;;;;3.75;3.00;;;;;12.04;60.42;100792.59;2121547;27;48016;-63
2022/03/12 04:26:37;;;;;;;;;8.67;6.67;;;;;12.03;60.42;100794.41;2121530;27;47395;-64
2022/03/12 04:27:38;;;;;;;;;4.75;3.50;;;;;12.02;60.60;100795.31;2122734;27;47521;-64
2022/03/12 04:28:39;;;;;;;;;7.00;5.00;;;;;12.02;60.54;100792.66;2129634;27;47640;-64
2022/03/12 04:29:40;;;;;;;;;4.50;3.50;;;;;12.02;60.95;100799.75;2111824;27;47346;-64
2022/03/12 04:30:40;;;;;;;;;4.33;4.33;;;;;12.03;60.52;100797.06;2116248;27;47924;-64
2022/03/12 04:31:41;;;;;;;;;4.33;4.33;;;;;12.01;60.43;100788.25;2121602;27;47628;-65
2022/03/12 04:32:45;;;;;;;;;5.33;5.00;;;;;12.02;60.33;100792.66;2121875;27;47447;-64
2022/03/12 04:33:45;;;;;;;;;5.50;4.75;;;;;12.02;60.65;100795.31;2121124;27;48053;-63
2022/03/12 04:34:46;;;;;;;;;3.00;3.00;;;;;12.03;60.40;100794.41;2121704;27;47609;-62
2022/03/12 04:35:48;;;;;;;;;1.67;1.67;;;;;12.03;60.37;100797.06;2118558;27;47803;-64
2022/03/12 04:36:49;;;;;;;;;5.25;5.25;;;;;12.01;60.60;100798.00;2121058;27;47598;-64
2022/03/12 04:37:49;;;;;;;;;5.67;5.67;;;;;12.00;60.30;100799.81;2130219;27;47913;-65
2022/03/12 04:38:50;;;;;;;;;5.00;5.00;;;;;12.01;60.63;100801.53;2125160;27;47809;-64
2022/03/12 04:39:50;;;;;;;;;5.33;5.33;;;;;12.00;60.43;100799.81;2128261;27;47901;-63
2022/03/12 04:40:51;;;;;;;;;3.33;3.00;;;;;11.99;60.36;100800.72;2130217;27;47422;-65
2022/03/12 04:41:51;;;;;;;;;5.00;5.00;;;;;11.99;60.47;100799.84;2118248;27;47892;-64
2022/03/12 04:42:53;;;;;;;;;4.67;4.67;;;;;12.00;60.53;100798.94;2112938;27;47436;-65
2022/03/12 04:43:53;;;;;;;;;4.75;4.75;;;;;11.98;60.48;100798.97;2126859;27;47867;-65
2022/03/12 04:44:54;;;;;;;;;6.33;6.33;;;;;11.97;60.50;100805.22;2129782;27;47193;-65
2022/03/12 04:45:57;;;;;;;;;3.00;3.00;;;;;11.96;60.39;100799.94;2125404;27;47781;-64
2022/03/12 04:46:57;;;;;;;;;6.00;4.25;;;;;11.97;60.50;100799.88;2121003;27;47554;-64
2022/03/12 04:47:58;;;;;;;;;6.00;5.00;;;;;11.97;60.51;100799.88;2121504;27;47557;-64